Terminal Aerodrome Forecast
Issued by NWS Albany, NY

Home | Current Version | Previous Version | Text Only | Print | Product List | Glossary On
Versions: 1 2 3 4 5 6 7 8 9 10 11 12 13 14 15 16 17 18 19 20 21 22 23 24 25 26 27
000
FTUS41 KALY 100500
TAFGFL
TAF
KGFL 100526Z 1006/1106 00000KT 6SM BR FEW080
      TEMPO 1008/1010 2SM BR BKN005
     FM101200 VRB03KT P6SM FEW030
     FM101600 23007KT P6SM SCT060
     FM102300 VRB03KT P6SM SCT250
      AMD NOT SKED=

USA.gov is the U.S. government's official web portal to all federal, state and local government web resources and services.